»·PEaware :: JBU407 KSEA-KLGB

JBU407 :: KSEA-KLGB

FLIGHT INFORMATION

Flight Status: Arrived
Operator:
JetBlue Airways
More flights by this operator :: More flights under this callsign
Pilot: Brandon G. (13)
Aircraft: AIRBUS A320
(A320)
More flights by this aircraft type
Origin: KSEA Seattle-Tacoma Intl
United States
Destination: KLGB Long Beach
United States
More flights between these airports :: More routes between these airports
Route: SUMMA9 SUMMA Q9 REBRG PCIFC1
File this flight plan on PilotEdge
Remarks:
Altitude:
(Current/Filed)
37,000ft
Speed:
(Current/Filed)
425kts
Departed: 31-Aug-17 05:25 PM
Arrived: 31-Aug-17 07:29 PM
Distance/Time
Traveled:
839nm/2:04
Distance/Time
To Go:
Arrived

Flight Plot

Page will automatically refresh every two minutes.

Flight plan parsing failed; only flown route is shown


Map Options




Map Legend


Flown Route
Filed Route
Departure Airport
Arrival Airport
Navaid (VOR, NDB)
Fix

Horizontal Profiles

Position Reports

Time Latitude Longitude Heading Altitude Ground
Speed
31-Aug-17 17:06 47.440888 -122.300336 43 380ft 0kts
31-Aug-17 17:07 47.440888 -122.300336 43 380ft 0kts
31-Aug-17 17:08 47.440888 -122.300336 43 380ft 0kts
31-Aug-17 17:09 47.440888 -122.300336 43 380ft 0kts
31-Aug-17 17:10 47.440888 -122.300336 43 380ft 0kts
31-Aug-17 17:11 47.440888 -122.300336 43 380ft 0kts
31-Aug-17 17:12 47.440888 -122.300336 43 380ft 0kts
31-Aug-17 17:13 47.440888 -122.300336 43 380ft 0kts
31-Aug-17 17:14 47.440888 -122.300336 43 380ft 0kts
31-Aug-17 17:15 47.440888 -122.300336 43 380ft 0kts
31-Aug-17 17:16 47.440888 -122.300336 43 380ft 0kts
31-Aug-17 17:17 47.440888 -122.300336 43 380ft 0kts
31-Aug-17 17:18 47.440888 -122.300336 43 380ft 0kts
31-Aug-17 17:19 47.440775 -122.300494 43 380ft 0kts
31-Aug-17 17:20 47.440356 -122.300545 303 380ft 0kts
31-Aug-17 17:21 47.440356 -122.300545 303 380ft 0kts
31-Aug-17 17:22 47.440356 -122.300545 303 380ft 0kts
31-Aug-17 17:23 47.440356 -122.300545 303 380ft 0kts
31-Aug-17 17:24 47.440384 -122.300607 303 380ft 2kts
31-Aug-17 17:25 47.439906 -122.303529 262 378ft 16kts
31-Aug-17 17:26 47.438047 -122.306356 179 368ft 8kts
31-Aug-17 17:27 47.434157 -122.305590 179 342ft 30kts
31-Aug-17 17:28 47.431743 -122.306362 264 324ft 0kts
31-Aug-17 17:29 47.433640 -122.308042 0 335ft 47kts
31-Aug-17 17:30 47.471749 -122.308451 356 1266ft 193kts
31-Aug-17 17:31 47.533346 -122.309024 357 4327ft 263kts
31-Aug-17 17:32 47.603344 -122.288822 51 8875ft 293kts
31-Aug-17 17:33 47.574653 -122.189598 175 11080ft 329kts
31-Aug-17 17:34 47.484733 -122.228881 205 12859ft 356kts
31-Aug-17 17:35 47.389629 -122.257862 181 16037ft 371kts
31-Aug-17 17:36 47.286812 -122.236350 178 18442ft 388kts
31-Aug-17 17:37 47.179686 -122.210450 171 20745ft 403kts
31-Aug-17 17:38 47.070047 -122.168363 169 22843ft 417kts
31-Aug-17 17:39 46.957201 -122.123228 169 24752ft 428kts
31-Aug-17 17:40 46.851581 -122.081074 169 26321ft 437kts
31-Aug-17 17:41 46.734265 -122.034434 168 27848ft 447kts
31-Aug-17 17:42 46.614275 -121.987574 172 29196ft 454kts
31-Aug-17 17:43 46.490853 -121.958258 175 30620ft 455kts
31-Aug-17 17:44 46.365743 -121.928778 175 31816ft 459kts
31-Aug-17 17:45 46.239818 -121.899264 175 32911ft 462kts
31-Aug-17 17:46 46.114992 -121.870116 175 34423ft 450kts
31-Aug-17 17:47 45.991143 -121.841361 175 35212ft 454kts
31-Aug-17 17:48 45.871753 -121.813766 175 35954ft 454kts
31-Aug-17 17:49 45.768275 -121.789900 175 36435ft 450kts
31-Aug-17 17:50 45.624955 -121.757074 175 37031ft 454kts
31-Aug-17 17:51 45.499568 -121.728464 174 37094ft 467kts
31-Aug-17 17:52 45.370319 -121.699102 174 37086ft 482kts
31-Aug-17 17:53 45.259791 -121.673038 174 37087ft 494kts
31-Aug-17 17:54 45.123154 -121.640692 173 37125ft 506kts
31-Aug-17 17:55 44.961578 -121.602654 173 37148ft 507kts
31-Aug-17 17:56 44.849349 -121.576384 173 37152ft 508kts
31-Aug-17 17:57 44.710960 -121.544169 172 37147ft 508kts
31-Aug-17 17:58 44.572274 -121.511929 172 37147ft 508kts
31-Aug-17 17:59 44.434018 -121.479993 172 37158ft 508kts
31-Aug-17 18:00 44.295338 -121.448119 172 37163ft 508kts
31-Aug-17 18:01 44.157197 -121.416526 172 37189ft 508kts
31-Aug-17 18:02 44.018362 -121.384917 172 37190ft 508kts
31-Aug-17 18:03 43.882741 -121.354175 172 37182ft 508kts
31-Aug-17 18:04 43.747432 -121.323891 172 37182ft 508kts
31-Aug-17 18:05 43.608951 -121.293248 172 37194ft 509kts
31-Aug-17 18:06 43.470295 -121.262729 172 37196ft 508kts
31-Aug-17 18:07 43.331093 -121.232239 172 37194ft 513kts
31-Aug-17 18:08 43.191598 -121.201850 171 37193ft 511kts
31-Aug-17 18:09 43.052087 -121.171514 171 37194ft 511kts
31-Aug-17 18:10 42.912862 -121.141426 171 37172ft 512kts
31-Aug-17 18:11 42.778221 -121.112482 171 37174ft 512kts
31-Aug-17 18:12 42.639162 -121.082701 170 37176ft 512kts
31-Aug-17 18:13 42.499934 -121.053020 170 37175ft 512kts
31-Aug-17 18:14 42.360622 -121.023447 171 37211ft 513kts
31-Aug-17 18:15 42.221242 -120.994020 170 37219ft 513kts
31-Aug-17 18:16 42.081775 -120.964660 170 37223ft 512kts
31-Aug-17 18:17 41.942142 -120.935409 170 37224ft 513kts
31-Aug-17 18:18 41.805310 -120.906911 170 37156ft 514kts
31-Aug-17 18:19 41.666081 -120.878029 169 37174ft 514kts
31-Aug-17 18:20 41.526267 -120.849117 169 37177ft 513kts
31-Aug-17 18:21 41.387216 -120.820493 169 37177ft 513kts
31-Aug-17 18:22 41.247477 -120.791865 169 37175ft 513kts
31-Aug-17 18:23 41.107918 -120.763393 168 37178ft 513kts
31-Aug-17 18:24 40.968353 -120.733735 166 37174ft 516kts
31-Aug-17 18:25 40.833624 -120.701296 166 37135ft 513kts
31-Aug-17 18:26 40.694113 -120.667934 165 37128ft 514kts
31-Aug-17 18:27 40.554848 -120.634667 166 37128ft 514kts
31-Aug-17 18:28 40.416037 -120.601705 165 37129ft 514kts
31-Aug-17 18:29 40.277837 -120.569012 165 37130ft 514kts
31-Aug-17 18:30 40.138641 -120.536229 165 37131ft 511kts
31-Aug-17 18:31 40.000122 -120.503737 165 37130ft 512kts
31-Aug-17 18:32 39.865263 -120.472255 165 37126ft 512kts
31-Aug-17 18:33 39.726603 -120.440026 165 37194ft 513kts
31-Aug-17 18:34 39.588086 -120.407916 165 37243ft 511kts
31-Aug-17 18:35 39.449234 -120.375878 165 37252ft 510kts
31-Aug-17 18:36 39.311866 -120.344270 165 37253ft 511kts
31-Aug-17 18:37 39.173103 -120.312417 166 37252ft 505kts
31-Aug-17 18:38 39.036281 -120.281210 166 37255ft 508kts
31-Aug-17 18:39 38.898798 -120.249985 166 37256ft 508kts
31-Aug-17 18:40 38.767866 -120.220394 166 37256ft 505kts
31-Aug-17 18:41 38.631693 -120.189709 166 37260ft 499kts
31-Aug-17 18:42 38.496357 -120.159328 166 37258ft 501kts
31-Aug-17 18:43 38.359971 -120.128816 166 37085ft 501kts
31-Aug-17 18:44 38.223939 -120.098495 166 36985ft 500kts
31-Aug-17 18:45 38.089383 -120.068641 167 36975ft 496kts
31-Aug-17 18:46 37.955050 -120.038939 166 36975ft 495kts
31-Aug-17 18:47 37.824418 -120.010183 167 36972ft 496kts
31-Aug-17 18:48 37.689789 -119.980604 167 36970ft 491kts
31-Aug-17 18:49 37.556546 -119.951487 167 36816ft 492kts
31-Aug-17 18:50 37.423060 -119.922394 167 36821ft 492kts
31-Aug-17 18:51 37.289420 -119.893376 167 36819ft 491kts
31-Aug-17 18:52 37.156000 -119.864509 168 36819ft 482kts
31-Aug-17 18:53 37.024077 -119.836069 168 36801ft 487kts
31-Aug-17 18:54 36.894236 -119.808165 167 36812ft 486kts
31-Aug-17 18:55 36.764301 -119.780390 168 36812ft 486kts
31-Aug-17 18:56 36.632935 -119.752360 168 36821ft 478kts
31-Aug-17 18:57 36.502713 -119.724670 169 36815ft 475kts
31-Aug-17 18:58 36.372997 -119.697187 169 36806ft 477kts
31-Aug-17 18:59 36.245092 -119.670166 169 36808ft 477kts
31-Aug-17 19:00 36.116805 -119.643162 169 36809ft 470kts
31-Aug-17 19:01 35.988521 -119.617808 178 36804ft 470kts
31-Aug-17 19:02 35.868734 -119.637908 189 36813ft 472kts
31-Aug-17 19:03 35.740249 -119.663871 189 36809ft 472kts
31-Aug-17 19:04 35.615449 -119.654502 157 36815ft 466kts
31-Aug-17 19:05 35.497734 -119.592192 155 36829ft 462kts
31-Aug-17 19:06 35.381329 -119.528499 155 36833ft 464kts
31-Aug-17 19:07 35.265171 -119.465063 155 36064ft 456kts
31-Aug-17 19:08 35.148555 -119.401462 156 35145ft 471kts
31-Aug-17 19:09 35.035303 -119.339202 157 34224ft 465kts
31-Aug-17 19:10 34.918639 -119.275189 157 33249ft 461kts
31-Aug-17 19:11 34.806522 -119.214007 157 32342ft 459kts
31-Aug-17 19:12 34.692645 -119.147904 153 31261ft 462kts
31-Aug-17 19:13 34.579435 -119.076067 153 29814ft 465kts
31-Aug-17 19:14 34.467104 -119.003439 152 28252ft 464kts
31-Aug-17 19:15 34.355282 -118.929518 151 26665ft 466kts
31-Aug-17 19:16 34.241736 -118.854421 151 25158ft 474kts
31-Aug-17 19:17 34.117472 -118.801785 161 22670ft 473kts
31-Aug-17 19:18 33.996589 -118.754604 160 19437ft 447kts
31-Aug-17 19:19 33.890830 -118.713714 160 16780ft 386kts
31-Aug-17 19:20 33.795823 -118.677133 160 14263ft 348kts
31-Aug-17 19:21 33.704897 -118.643479 161 11229ft 345kts
31-Aug-17 19:22 33.622392 -118.614342 161 10574ft 292kts
31-Aug-17 19:23 33.586368 -118.545469 63 9436ft 287kts
31-Aug-17 19:24 33.626740 -118.462072 63 7572ft 290kts
31-Aug-17 19:25 33.644597 -118.382085 92 7196ft 222kts
31-Aug-17 19:26 33.641733 -118.314505 91 5552ft 218kts
31-Aug-17 19:27 33.638525 -118.243107 86 3768ft 216kts
31-Aug-17 19:28 33.677800 -118.192503 47 2837ft 209kts
31-Aug-17 19:29 33.713259 -118.142001 53 1985ft 183kts
31-Aug-17 19:30 33.743011 -118.097390 35 1786ft 150kts
31-Aug-17 19:31 33.781253 -118.106964 315 898ft 154kts
31-Aug-17 19:32 33.810843 -118.143007 315 85ft 152kts
31-Aug-17 19:33 33.822785 -118.157220 344 55ft 12kts
31-Aug-17 19:34 33.824777 -118.158049 270 57ft 19kts
31-Aug-17 19:35 33.821617 -118.153966 92 51ft 24kts
31-Aug-17 19:36 33.819615 -118.146730 128 41ft 15kts
31-Aug-17 19:37 33.819510 -118.146047 91 40ft 0kts
31-Aug-17 19:38 33.819510 -118.146047 91 40ft 0kts
31-Aug-17 19:39 33.819510 -118.146047 91 40ft 0kts
31-Aug-17 19:40 33.819510 -118.146047 91 40ft 0kts

Navigation Log

Ident Type
Flight plan parsing failed, navigation log unavailable